Time;durP1;ratioP1;P1;durP2;ratioP2;P2;SDS_P1;SDS_P2;PMS_P1;PMS_P2;Temp;Humidity;BMP_temperature;BMP_pressure;BME280_temperature;BME280_humidity;BME280_pressure;Samples;Min_cycle;Max_cycle;Signal;HPM_P1;HPM_P2
2022/10/19 00:01:58;;;;;;;6.53;1.90;;;9.70;99.90;;;;;;7375083;19;20021;-47
2022/10/19 00:04:25;;;;;;;6.57;2.33;;;9.60;99.90;;;;;;7374611;19;20026;-45
2022/10/19 00:06:51;;;;;;;3.97;1.48;;;9.60;99.90;;;;;;7378681;19;20508;-46
2022/10/19 00:09:19;;;;;;;5.63;2.05;;;9.50;99.90;;;;;;7380845;19;20046;-47
2022/10/19 00:11:47;;;;;;;5.25;1.77;;;9.50;99.90;;;;;;7372476;19;20014;-46
2022/10/19 00:14:17;;;;;;;6.53;2.10;;;9.40;99.90;;;;;;7373659;19;20608;-44
2022/10/19 00:16:45;;;;;;;6.05;2.03;;;9.40;99.90;;;;;;7375442;19;20023;-48
2022/10/19 00:19:20;;;;;;;5.38;1.80;;;9.30;99.90;;;;;;7374466;19;20041;-47
2022/10/19 00:21:47;;;;;;;2.90;1.50;;;9.20;99.90;;;;;;7379309;19;20368;-46
2022/10/19 00:24:13;;;;;;;3.28;1.20;;;9.10;99.90;;;;;;7377197;19;20026;-47
2022/10/19 00:26:40;;;;;;;4.13;1.63;;;9.00;99.90;;;;;;7372779;19;20112;-45
2022/10/19 00:29:07;;;;;;;3.92;1.50;;;8.90;99.90;;;;;;7376164;19;20038;-46
2022/10/19 00:31:33;;;;;;;3.67;1.33;;;8.80;99.90;;;;;;7375172;19;20050;-50
2022/10/19 00:34:00;;;;;;;7.65;1.50;;;8.80;99.90;;;;;;7375302;19;20404;-46
2022/10/19 00:36:36;;;;;;;4.55;1.30;;;8.80;99.90;;;;;;7373295;19;20029;-48
2022/10/19 00:39:05;;;;;;;3.53;1.20;;;8.70;99.90;;;;;;7375326;19;20448;-48
2022/10/19 00:41:33;;;;;;;3.45;1.40;;;8.70;99.90;;;;;;7373221;19;20021;-48
2022/10/19 00:44:03;;;;;;;2.63;1.75;;;8.70;99.90;;;;;;7375084;19;20018;-46
2022/10/19 00:46:32;;;;;;;3.65;1.70;;;8.80;99.90;;;;;;7370283;19;20395;-43
2022/10/19 00:49:03;;;;;;;3.17;2.00;;;8.80;99.90;;;;;;7376314;19;20029;-44
2022/10/19 00:51:32;;;;;;;6.22;2.17;;;8.80;99.90;;;;;;7373225;19;20014;-46
2022/10/19 00:54:01;;;;;;;5.78;1.90;;;8.80;99.90;;;;;;7372390;19;20521;-44
2022/10/19 00:56:27;;;;;;;3.28;1.58;;;8.90;99.90;;;;;;7373125;19;20026;-44
2022/10/19 00:58:54;;;;;;;3.47;1.88;;;8.80;99.90;;;;;;7372263;19;20400;-43
2022/10/19 01:01:23;;;;;;;2.50;2.00;;;8.80;99.90;;;;;;7377084;19;20624;-46
2022/10/19 01:03:49;;;;;;;6.05;2.00;;;8.80;99.90;;;;;;7373777;19;20361;-43
2022/10/19 01:06:17;;;;;;;4.00;1.60;;;8.90;99.90;;;;;;7373296;19;20077;-42
2022/10/19 01:08:43;;;;;;;6.53;2.38;;;8.90;99.90;;;;;;7369824;19;20061;-45
2022/10/19 01:11:28;;;;;;;5.80;1.98;;;8.90;99.90;;;;;;7373290;19;20023;-44
2022/10/19 01:14:16;;;;;;;3.83;1.65;;;9.00;99.90;;;;;;7372082;19;20620;-44
2022/10/19 01:17:20;;;;;;;4.78;1.88;;;9.00;99.90;;;;;;7377688;19;20401;-43
2022/10/19 01:20:24;;;;;;;2.60;1.88;;;9.00;99.90;;;;;;7374319;19;20017;-43
2022/10/19 01:23:03;;;;;;;7.10;2.40;;;9.10;99.90;;;;;;7371193;19;20485;-44
2022/10/19 01:25:54;;;;;;;3.40;1.95;;;9.10;99.90;;;;;;7369516;19;20059;-46
2022/10/19 01:28:44;;;;;;;4.97;1.80;;;9.20;99.90;;;;;;7373092;19;20039;-43
2022/10/19 01:31:26;;;;;;;5.45;2.25;;;9.20;99.90;;;;;;7367897;19;20088;-45
2022/10/19 01:34:17;;;;;;;6.50;2.42;;;9.20;99.90;;;;;;7370597;19;20384;-46
2022/10/19 01:36:49;;;;;;;4.88;2.28;;;9.30;99.90;;;;;;7371676;19;20022;-44
2022/10/19 01:39:30;;;;;;;6.25;2.25;;;9.30;99.90;;;;;;7373870;19;20482;-47
2022/10/19 01:42:15;;;;;;;6.60;2.80;;;9.40;99.90;;;;;;7373029;19;20033;-42
2022/10/19 01:44:50;;;;;;;9.85;2.78;;;9.40;99.90;;;;;;7369875;19;20042;-46
2022/10/19 01:47:34;;;;;;;6.00;2.75;;;9.50;99.90;;;;;;7373413;19;20054;-42
2022/10/19 01:50:04;;;;;;;5.95;2.95;;;9.50;99.90;;;;;;7372690;19;20022;-43
2022/10/19 01:52:32;;;;;;;6.97;2.95;;;9.60;99.90;;;;;;7374475;19;20868;-42
2022/10/19 01:55:03;;;;;;;8.82;2.65;;;9.70;99.90;;;;;;7373639;19;20348;-43
2022/10/19 01:57:36;;;;;;;6.72;3.00;;;9.80;99.90;;;;;;7369020;19;21066;-44
2022/10/19 02:00:06;;;;;;;10.02;3.65;;;9.80;99.90;;;;;;7375969;19;20378;-44
2022/10/19 02:02:50;;;;;;;10.00;2.58;;;9.80;99.90;;;;;;7374573;19;20043;-43
2022/10/19 02:05:19;;;;;;;6.05;2.40;;;9.90;99.90;;;;;;7372614;19;20046;-43
2022/10/19 02:07:53;;;;;;;7.13;2.80;;;9.90;99.90;;;;;;7369275;19;20018;-46
2022/10/19 02:10:20;;;;;;;8.30;3.03;;;9.90;99.90;;;;;;7373447;19;20030;-44
2022/10/19 02:12:48;;;;;;;6.18;2.50;;;9.90;99.90;;;;;;7370843;19;20078;-45
2022/10/19 02:15:21;;;;;;;7.32;2.72;;;9.90;99.90;;;;;;7371271;19;20098;-44
2022/10/19 02:17:51;;;;;;;8.27;2.22;;;9.90;99.90;;;;;;7371002;19;20030;-45
2022/10/19 02:20:18;;;;;;;7.50;2.63;;;9.90;99.90;;;;;;7367627;19;20102;-45
2022/10/19 02:22:44;;;;;;;6.65;2.58;;;9.90;99.90;;;;;;7372327;19;20372;-46
2022/10/19 02:25:11;;;;;;;6.53;2.60;;;9.90;99.90;;;;;;7371900;19;20018;-44
2022/10/19 02:27:40;;;;;;;5.72;2.67;;;9.90;99.90;;;;;;7373181;19;20104;-43
2022/10/19 02:30:16;;;;;;;6.53;2.85;;;9.90;99.90;;;;;;7368721;19;20018;-47
2022/10/19 02:32:43;;;;;;;8.55;2.95;;;10.00;99.90;;;;;;7374436;19;20544;-45
2022/10/19 02:35:12;;;;;;;6.35;3.10;;;10.00;99.90;;;;;;7369665;19;20094;-44
2022/10/19 02:37:39;;;;;;;7.32;3.08;;;10.00;99.90;;;;;;7371784;19;20026;-45
2022/10/19 02:40:07;;;;;;;6.15;3.03;;;10.00;99.90;;;;;;7370111;19;20022;-44
2022/10/19 02:42:44;;;;;;;6.10;2.50;;;10.00;99.90;;;;;;7377101;19;20468;-42
2022/10/19 02:45:20;;;;;;;7.00;2.42;;;10.00;99.90;;;;;;7376971;19;20074;-44
2022/10/19 02:47:52;;;;;;;10.00;2.70;;;9.90;99.90;;;;;;7380130;19;20482;-43
2022/10/19 02:50:20;;;;;;;6.72;2.60;;;9.90;99.90;;;;;;7374504;19;20545;-43
2022/10/19 02:52:46;;;;;;;8.05;2.20;;;9.90;99.90;;;;;;7376886;19;20023;-45
2022/10/19 02:55:12;;;;;;;8.73;2.70;;;9.80;99.90;;;;;;7375655;19;20034;-43
2022/10/19 02:57:39;;;;;;;7.82;2.47;;;9.90;99.90;;;;;;7376254;19;20029;-45
2022/10/19 03:00:07;;;;;;;6.00;2.85;;;9.80;99.90;;;;;;7375027;19;20022;-45
2022/10/19 03:02:33;;;;;;;5.50;2.38;;;9.80;99.90;;;;;;7368030;19;20055;-43
2022/10/19 03:05:00;;;;;;;8.48;2.65;;;9.80;99.90;;;;;;7378100;19;20031;-47
2022/10/19 03:07:26;;;;;;;6.60;2.60;;;9.80;99.90;;;;;;7380774;19;20601;-55
2022/10/19 03:09:53;;;;;;;6.03;2.25;;;9.80;99.90;;;;;;7378805;19;20096;-45
2022/10/19 03:12:19;;;;;;;7.82;2.70;;;9.80;99.90;;;;;;7376009;19;20059;-43
2022/10/19 03:14:45;;;;;;;4.63;2.47;;;9.80;99.90;;;;;;7375450;19;20089;-45
2022/10/19 03:17:11;;;;;;;7.80;2.33;;;9.80;99.90;;;;;;7377765;19;20018;-48
2022/10/19 03:19:37;;;;;;;7.97;2.20;;;9.80;99.90;;;;;;7377495;19;20585;-48
2022/10/19 03:22:04;;;;;;;5.85;2.67;;;9.80;99.90;;;;;;7376832;19;20022;-49
2022/10/19 03:24:30;;;;;;;7.22;2.55;;;9.90;99.90;;;;;;7376330;19;20584;-45
2022/10/19 03:26:57;;;;;;;8.70;2.65;;;9.80;99.90;;;;;;7378187;19;20461;-46
2022/10/19 03:29:23;;;;;;;6.07;2.65;;;9.90;99.90;;;;;;7383366;19;20140;-45
2022/10/19 03:31:50;;;;;;;8.18;2.90;;;9.80;99.90;;;;;;7379013;19;20015;-46
2022/10/19 03:34:16;;;;;;;6.05;2.60;;;9.90;99.90;;;;;;7377940;19;20089;-48
2022/10/19 03:36:42;;;;;;;8.43;2.60;;;9.90;99.90;;;;;;7378293;19;20386;-48
2022/10/19 03:39:16;;;;;;;5.65;2.50;;;9.90;99.90;;;;;;7377875;19;20026;-44
2022/10/19 03:41:43;;;;;;;3.58;2.30;;;9.90;99.90;;;;;;7378663;19;20627;-46
2022/10/19 03:44:10;;;;;;;6.70;2.55;;;10.00;99.90;;;;;;7369726;19;20022;-47
2022/10/19 03:46:37;;;;;;;5.07;2.47;;;10.00;99.90;;;;;;7374726;19;20538;-45
2022/10/19 03:49:04;;;;;;;6.88;2.25;;;10.00;99.90;;;;;;7376307;19;20368;-43
2022/10/19 03:51:31;;;;;;;9.32;2.50;;;10.00;99.90;;;;;;7373441;19;20391;-46
2022/10/19 03:54:01;;;;;;;5.97;2.13;;;9.90;99.90;;;;;;7372641;19;20600;-43
2022/10/19 03:56:29;;;;;;;7.53;2.47;;;9.90;99.90;;;;;;7372047;19;20065;-45
2022/10/19 03:58:56;;;;;;;5.35;2.20;;;9.90;99.90;;;;;;7371567;19;20015;-44
2022/10/19 04:01:26;;;;;;;4.15;2.13;;;9.90;99.90;;;;;;7374628;19;20420;-43
2022/10/19 04:03:58;;;;;;;4.55;2.22;;;9.90;99.90;;;;;;7373670;19;20481;-46
2022/10/19 04:06:28;;;;;;;7.00;2.53;;;9.90;99.90;;;;;;7367897;19;20035;-50
2022/10/19 04:08:55;;;;;;;5.43;2.30;;;9.90;99.90;;;;;;7376522;19;20481;-48
2022/10/19 04:11:24;;;;;;;5.05;2.53;;;9.90;99.90;;;;;;7375324;19;20054;-49
2022/10/19 04:13:51;;;;;;;7.43;2.80;;;9.90;99.90;;;;;;7374799;19;20064;-45
2022/10/19 04:16:19;;;;;;;5.07;2.25;;;9.90;99.90;;;;;;7370178;19;20502;-43
2022/10/19 04:18:46;;;;;;;5.63;2.40;;;9.90;99.90;;;;;;7375286;19;20026;-43
2022/10/19 04:21:26;;;;;;;5.43;2.22;;;9.90;99.90;;;;;;7373849;19;20098;-45
2022/10/19 04:23:57;;;;;;;3.88;2.50;;;9.90;99.90;;;;;;7375890;19;20019;-49
2022/10/19 04:26:23;;;;;;;3.50;2.17;;;9.90;99.90;;;;;;7374407;19;20093;-43
2022/10/19 04:28:49;;;;;;;5.43;2.17;;;9.90;99.90;;;;;;7374042;19;20019;-44
2022/10/19 04:31:18;;;;;;;7.45;2.72;;;9.90;99.90;;;;;;7374385;19;20014;-44
2022/10/19 04:33:44;;;;;;;7.13;2.58;;;9.90;99.90;;;;;;7378577;19;20014;-46
2022/10/19 04:36:11;;;;;;;9.52;2.55;;;9.90;99.90;;;;;;7374210;19;20050;-44
2022/10/19 04:38:38;;;;;;;7.97;2.85;;;10.00;99.90;;;;;;7374489;19;20442;-48
2022/10/19 04:41:06;;;;;;;5.03;2.90;;;9.90;99.90;;;;;;7376609;19;20034;-43
2022/10/19 04:43:33;;;;;;;9.80;2.30;;;9.90;99.90;;;;;;7378854;19;20444;-45
2022/10/19 04:46:09;;;;;;;5.18;2.63;;;9.90;99.90;;;;;;7374528;19;20019;-44
2022/10/19 04:48:37;;;;;;;4.65;2.25;;;9.90;99.90;;;;;;7372319;19;20569;-47
2022/10/19 04:51:04;;;;;;;5.90;2.30;;;9.90;99.90;;;;;;7373517;19;20011;-45
2022/10/19 04:53:30;;;;;;;6.03;2.17;;;9.90;99.90;;;;;;7376136;19;20733;-45
2022/10/19 04:55:57;;;;;;;6.03;2.15;;;10.00;99.90;;;;;;7372473;19;20482;-46
2022/10/19 04:58:23;;;;;;;7.28;2.15;;;9.90;99.90;;;;;;7373182;19;20018;-45
2022/10/19 05:00:50;;;;;;;9.55;2.95;;;9.90;99.90;;;;;;7374176;19;20022;-48
2022/10/19 05:03:17;;;;;;;9.18;2.20;;;9.90;99.90;;;;;;7371221;19;20022;-49
2022/10/19 05:05:43;;;;;;;5.63;2.17;;;10.00;99.90;;;;;;7366247;19;20019;-47
2022/10/19 05:08:10;;;;;;;9.48;2.63;;;9.90;99.90;;;;;;7361790;19;20051;-47
2022/10/19 05:10:37;;;;;;;6.95;2.63;;;10.00;99.90;;;;;;7362607;19;20023;-44
2022/10/19 05:13:04;;;;;;;7.38;2.30;;;9.90;99.90;;;;;;7367863;19;20018;-47
2022/10/19 05:15:30;;;;;;;4.93;1.80;;;9.90;99.90;;;;;;7370734;19;20081;-49
2022/10/19 05:17:56;;;;;;;7.47;1.90;;;10.00;99.90;;;;;;7373983;19;20122;-45
2022/10/19 05:20:23;;;;;;;7.43;2.00;;;10.00;99.90;;;;;;7375321;19;20636;-46
2022/10/19 05:22:50;;;;;;;7.72;2.53;;;10.00;99.90;;;;;;7373362;19;20014;-45
2022/10/19 05:25:17;;;;;;;7.47;2.30;;;10.00;99.90;;;;;;7368664;19;20014;-46
2022/10/19 05:27:43;;;;;;;4.93;1.95;;;10.10;99.90;;;;;;7370099;19;20480;-46
2022/10/19 05:30:09;;;;;;;9.38;2.78;;;10.10;99.90;;;;;;7373337;19;20026;-44
2022/10/19 05:32:37;;;;;;;4.10;1.98;;;10.10;99.90;;;;;;7369173;19;20018;-49
2022/10/19 05:35:03;;;;;;;7.45;2.10;;;10.10;99.90;;;;;;7373228;19;20019;-47
2022/10/19 05:37:29;;;;;;;10.23;2.25;;;10.10;99.90;;;;;;7371198;19;20029;-48
2022/10/19 05:39:56;;;;;;;7.90;1.98;;;10.10;99.90;;;;;;7371381;19;20019;-46
2022/10/19 05:42:22;;;;;;;7.47;1.60;;;10.10;99.90;;;;;;7372495;19;20014;-46
2022/10/19 05:44:49;;;;;;;7.50;1.92;;;10.10;99.90;;;;;;7371531;19;20022;-46
2022/10/19 05:47:16;;;;;;;8.23;2.40;;;10.00;99.90;;;;;;7367474;19;20019;-45
2022/10/19 05:49:42;;;;;;;6.93;1.98;;;10.00;99.90;;;;;;7370288;19;20106;-47
2022/10/19 05:52:08;;;;;;;9.32;2.05;;;10.00;99.90;;;;;;7367384;19;20044;-46
2022/10/19 05:54:36;;;;;;;8.77;2.10;;;10.00;99.90;;;;;;7375170;19;20022;-45
2022/10/19 05:57:02;;;;;;;9.93;6.63;;;10.00;99.90;;;;;;7367030;19;20023;-50
2022/10/19 05:59:30;;;;;;;7.65;2.70;;;9.90;99.90;;;;;;7372297;19;20388;-48
2022/10/19 06:01:57;;;;;;;9.55;2.58;;;10.10;99.90;;;;;;7374293;19;20029;-47
2022/10/19 06:04:23;;;;;;;6.68;1.90;;;10.00;99.90;;;;;;7373138;19;20411;-47
2022/10/19 06:06:49;;;;;;;6.25;1.60;;;9.90;99.90;;;;;;7372434;19;20018;-45
2022/10/19 06:09:16;;;;;;;9.63;2.28;;;9.90;99.90;;;;;;7373836;19;20482;-45
2022/10/19 06:11:43;;;;;;;7.05;1.58;;;9.90;99.90;;;;;;7370678;19;20025;-45
2022/10/19 06:14:17;;;;;;;8.68;2.70;;;9.90;99.90;;;;;;7373641;19;20018;-46
2022/10/19 06:16:44;;;;;;;4.82;1.58;;;9.90;99.90;;;;;;7368723;19;20592;-46
2022/10/19 06:19:11;;;;;;;4.57;1.35;;;9.90;99.90;;;;;;7372603;19;20287;-46
2022/10/19 06:21:37;;;;;;;7.00;2.05;;;9.90;99.90;;;;;;7367185;19;20018;-47
2022/10/19 06:24:05;;;;;;;6.90;1.60;;;10.00;99.90;;;;;;7374968;19;20114;-49
2022/10/19 06:26:33;;;;;;;6.28;1.50;;;10.00;99.90;;;;;;7368164;19;20590;-45
2022/10/19 06:29:00;;;;;;;5.78;1.38;;;10.00;99.90;;;;;;7368853;19;20018;-45
2022/10/19 06:31:31;;;;;;;9.65;2.22;;;10.00;99.90;;;;;;7374478;19;20010;-45
2022/10/19 06:33:58;;;;;;;6.68;1.75;;;10.00;99.90;;;;;;7372300;19;20491;-46
2022/10/19 06:36:27;;;;;;;6.85;2.40;;;10.10;99.90;;;;;;7371858;19;20379;-45
2022/10/19 06:38:55;;;;;;;9.30;1.75;;;10.10;99.90;;;;;;7368925;19;20646;-47
2022/10/19 06:41:22;;;;;;;7.82;2.00;;;10.10;99.90;;;;;;7369604;19;20037;-47
2022/10/19 06:43:51;;;;;;;4.82;1.25;;;10.30;99.90;;;;;;7359075;19;20018;-49
2022/10/19 06:46:20;;;;;;;11.05;2.13;;;10.30;99.90;;;;;;7361515;19;20506;-46
2022/10/19 06:48:52;;;;;;;8.32;1.52;;;10.40;99.90;;;;;;7367559;19;20523;-48
2022/10/19 06:51:19;;;;;;;9.45;2.17;;;10.40;99.90;;;;;;7365111;19;20042;-50
2022/10/19 06:53:46;;;;;;;9.48;1.65;;;10.40;99.90;;;;;;7367848;19;20034;-48
2022/10/19 06:56:12;;;;;;;6.35;1.80;;;10.50;99.90;;;;;;7361190;19;20022;-44
2022/10/19 06:58:39;;;;;;;4.78;1.40;;;10.60;99.90;;;;;;7364873;19;20019;-44
2022/10/19 07:01:07;;;;;;;9.85;2.28;;;10.60;99.90;;;;;;7363489;19;20015;-44
2022/10/19 07:03:35;;;;;;;10.90;2.47;;;10.60;99.90;;;;;;7365297;19;20026;-44
2022/10/19 07:06:04;;;;;;;12.57;3.00;;;10.70;99.90;;;;;;7361778;19;20018;-45
2022/10/19 07:08:32;;;;;;;10.65;1.83;;;10.80;99.90;;;;;;7359952;19;20019;-43
2022/10/19 07:11:05;;;;;;;10.35;1.45;;;10.90;99.90;;;;;;7361066;19;20112;-46
2022/10/19 07:13:31;;;;;;;5.65;1.08;;;10.90;99.90;;;;;;7364968;19;20096;-46
2022/10/19 07:15:59;;;;;;;5.18;1.17;;;10.90;99.90;;;;;;7362667;19;20055;-47
2022/10/19 07:18:26;;;;;;;6.32;1.88;;;11.00;99.90;;;;;;7361221;19;20019;-47
2022/10/19 07:20:57;;;;;;;5.40;1.58;;;11.10;99.90;;;;;;7367558;19;20022;-45
2022/10/19 07:23:25;;;;;;;7.05;1.20;;;11.10;99.90;;;;;;7364497;19;20412;-43
2022/10/19 07:25:54;;;;;;;8.18;1.98;;;11.20;99.90;;;;;;7363584;19;20019;-47
2022/10/19 07:28:21;;;;;;;10.80;1.58;;;11.30;99.90;;;;;;7372157;19;20022;-44
2022/10/19 07:30:47;;;;;;;5.88;2.00;;;11.30;99.90;;;;;;7376047;19;20019;-42
2022/10/19 07:33:14;;;;;;;10.07;1.63;;;11.40;99.90;;;;;;7370378;19;20117;-42
2022/10/19 07:35:41;;;;;;;8.80;1.30;;;11.40;99.90;;;;;;7372380;19;20039;-44
2022/10/19 07:38:07;;;;;;;7.13;2.15;;;11.50;99.90;;;;;;7371466;19;20018;-43
2022/10/19 07:40:35;;;;;;;11.73;1.65;;;11.60;99.90;;;;;;7367027;19;20498;-45
2022/10/19 07:43:01;;;;;;;7.45;1.60;;;11.70;99.90;;;;;;7369559;19;20049;-43
2022/10/19 07:45:28;;;;;;;6.70;1.33;;;11.80;99.90;;;;;;7374831;19;20019;-43
2022/10/19 07:47:55;;;;;;;7.60;1.40;;;11.90;99.90;;;;;;7371113;19;20014;-43
2022/10/19 07:50:23;;;;;;;8.13;1.23;;;11.90;99.90;;;;;;7372359;19;20367;-44
2022/10/19 07:52:53;;;;;;;6.45;1.48;;;11.90;99.90;;;;;;7372072;19;20022;-44
2022/10/19 07:55:20;;;;;;;7.60;1.75;;;12.00;99.90;;;;;;7369345;19;20022;-43
2022/10/19 07:57:48;;;;;;;8.60;1.45;;;12.10;99.90;;;;;;7368334;19;20015;-44
2022/10/19 08:00:15;;;;;;;8.15;1.20;;;12.20;99.90;;;;;;7372430;19;20030;-45
2022/10/19 08:02:43;;;;;;;10.25;1.77;;;12.20;99.90;;;;;;7372789;19;20019;-47
2022/10/19 08:05:09;;;;;;;9.07;1.58;;;12.40;99.90;;;;;;7373138;19;20663;-44
2022/10/19 08:07:36;;;;;;;8.88;1.60;;;12.60;99.90;;;;;;7373240;19;20018;-44
2022/10/19 08:10:03;;;;;;;9.30;1.55;;;12.90;99.90;;;;;;7373429;19;20022;-43
2022/10/19 08:12:33;;;;;;;6.80;1.40;;;13.00;99.90;;;;;;7370157;19;20018;-43
2022/10/19 08:15:00;;;;;;;6.20;1.40;;;13.30;99.90;;;;;;7369583;19;20087;-46
2022/10/19 08:17:26;;;;;;;7.03;1.08;;;13.60;99.90;;;;;;7372799;19;20101;-46
2022/10/19 08:19:53;;;;;;;8.75;2.22;;;13.90;99.90;;;;;;7374200;19;20019;-45
2022/10/19 08:22:19;;;;;;;9.80;2.00;;;14.20;99.90;;;;;;7372298;19;20597;-43
2022/10/19 08:24:47;;;;;;;14.05;6.75;;;14.50;99.90;;;;;;7373206;19;20016;-43
2022/10/19 08:27:13;;;;;;;9.02;1.63;;;14.70;99.90;;;;;;7373564;19;20486;-44
2022/10/19 08:29:40;;;;;;;14.13;7.97;;;15.10;99.90;;;;;;7372685;19;20133;-45
2022/10/19 08:32:07;;;;;;;11.68;1.98;;;15.10;99.90;;;;;;7372182;19;20370;-44
2022/10/19 08:34:33;;;;;;;11.73;2.42;;;15.20;99.90;;;;;;7375013;19;20014;-43
2022/10/19 08:37:01;;;;;;;12.38;2.72;;;15.20;99.90;;;;;;7371836;19;20025;-44
2022/10/19 08:39:28;;;;;;;10.77;1.67;;;15.10;99.90;;;;;;7368612;19;20021;-46
2022/10/19 08:42:23;;;;;;;9.13;2.00;;;15.20;99.90;;;;;;7368838;19;20085;-43
2022/10/19 08:44:59;;;;;;;9.63;2.85;;;15.00;99.90;;;;;;7372283;19;20018;-43
2022/10/19 08:47:43;;;;;;;6.40;1.20;;;14.60;99.90;;;;;;7372679;19;20093;-43
2022/10/19 08:50:31;;;;;;;7.38;1.35;;;14.60;99.90;;;;;;7371238;19;20032;-43
2022/10/19 08:53:03;;;;;;;8.52;3.28;;;14.50;99.90;;;;;;7370985;19;20022;-43
2022/10/19 08:55:59;;;;;;;9.07;1.75;;;14.50;99.90;;;;;;7374544;19;20014;-43
2022/10/19 08:58:49;;;;;;;9.65;2.72;;;14.20;99.90;;;;;;7370167;19;20585;-43
2022/10/19 09:01:25;;;;;;;11.10;1.40;;;14.30;99.90;;;;;;7369915;19;20026;-44
2022/10/19 09:04:00;;;;;;;5.97;1.35;;;14.20;99.90;;;;;;7372318;19;20107;-43
2022/10/19 09:06:30;;;;;;;7.53;1.52;;;14.10;99.90;;;;;;7371592;19;20022;-45
2022/10/19 09:08:57;;;;;;;8.35;1.52;;;14.40;99.90;;;;;;7366106;19;20015;-43
2022/10/19 09:11:34;;;;;;;6.45;1.05;;;14.30;99.90;;;;;;7370092;19;20019;-45
2022/10/19 09:14:26;;;;;;;7.53;1.58;;;14.30;99.90;;;;;;7368587;19;20010;-44
2022/10/19 09:16:58;;;;;;;7.85;1.98;;;14.30;99.90;;;;;;7367897;19;21513;-44
2022/10/19 09:19:29;;;;;;;11.98;1.60;;;14.20;99.90;;;;;;7364319;19;20454;-44
2022/10/19 09:22:18;;;;;;;8.27;2.55;;;14.30;99.90;;;;;;7370522;19;20018;-45
2022/10/19 09:24:51;;;;;;;7.13;1.45;;;14.30;99.90;;;;;;7368944;19;20014;-44
2022/10/19 09:27:33;;;;;;;9.02;1.42;;;14.30;99.90;;;;;;7373374;19;20359;-44
2022/10/19 09:30:02;;;;;;;;;;;14.20;99.90;;;;;;7366609;19;20082;-43
2022/10/19 09:32:37;;;;;;;6.90;1.60;;;14.10;99.90;;;;;;7370105;19;19948;-44
2022/10/19 09:35:26;;;;;;;10.48;1.33;;;14.10;99.90;;;;;;7368553;19;20018;-44
2022/10/19 09:37:54;;;;;;;5.88;1.15;;;14.00;99.90;;;;;;7366871;19;20020;-43
2022/10/19 09:40:26;;;;;;;8.32;1.27;;;14.00;99.90;;;;;;7367397;19;20019;-45
2022/10/19 09:42:57;;;;;;;20.65;15.35;;;14.00;99.90;;;;;;7368188;19;20015;-45
2022/10/19 09:45:35;;;;;;;9.25;4.70;;;14.00;99.90;;;;;;7368754;19;20580;-46
2022/10/19 09:48:11;;;;;;;6.28;1.63;;;14.00;99.90;;;;;;7366528;19;21443;-47
2022/10/19 09:50:43;;;;;;;5.05;1.48;;;14.10;99.90;;;;;;7373457;19;20018;-45
2022/10/19 09:53:18;;;;;;;9.52;3.15;;;14.10;99.90;;;;;;7367883;19;20022;-45
2022/10/19 09:55:52;;;;;;;7.53;1.52;;;14.00;99.90;;;;;;7369502;19;20438;-43
2022/10/19 09:58:19;;;;;;;9.18;2.17;;;14.00;99.90;;;;;;7366748;19;20023;-47
2022/10/19 10:00:49;;;;;;;4.40;0.93;;;14.00;99.90;;;;;;7366485;19;20073;-45
2022/10/19 10:03:34;;;;;;;7.43;1.77;;;13.90;99.90;;;;;;7363688;19;20018;-43
2022/10/19 10:06:03;;;;;;;8.15;1.60;;;13.90;99.90;;;;;;7367858;19;20371;-43
2022/10/19 10:08:35;;;;;;;7.18;1.80;;;14.00;99.90;;;;;;7366686;19;20044;-45
2022/10/19 10:11:11;;;;;;;7.67;1.17;;;14.00;99.90;;;;;;7366780;19;20014;-46
2022/10/19 10:13:43;;;;;;;5.60;1.92;;;14.00;99.90;;;;;;7368575;19;20069;-42
2022/10/19 10:16:15;;;;;;;9.98;4.18;;;14.20;99.90;;;;;;7367703;19;20011;-43
2022/10/19 10:18:54;;;;;;;8.75;1.60;;;14.40;99.90;;;;;;7368583;19;20508;-44
2022/10/19 10:21:30;;;;;;;6.90;2.22;;;14.50;99.90;;;;;;7367725;19;20391;-46
2022/10/19 10:24:15;;;;;;;4.25;1.60;;;14.50;99.90;;;;;;7369294;19;20014;-44
2022/10/19 10:26:45;;;;;;;12.27;4.78;;;14.70;99.90;;;;;;7366396;19;20025;-45
2022/10/19 10:29:19;;;;;;;5.03;1.60;;;14.70;99.90;;;;;;7367611;19;20025;-45
2022/10/19 10:32:07;;;;;;;6.68;1.90;;;14.70;99.90;;;;;;7365506;19;20031;-43
2022/10/19 10:34:54;;;;;;;7.35;1.33;;;14.60;99.90;;;;;;7367285;19;20338;-42
2022/10/19 10:37:26;;;;;;;4.55;1.35;;;14.30;99.90;;;;;;7367649;19;20039;-43
2022/10/19 10:39:55;;;;;;;6.53;2.08;;;14.30;99.90;;;;;;7368630;19;20026;-43
2022/10/19 10:42:29;;;;;;;2.70;0.85;;;14.30;99.90;;;;;;7365458;19;20057;-45
2022/10/19 10:44:56;;;;;;;7.93;1.40;;;14.20;99.90;;;;;;7367483;19;20022;-46
2022/10/19 10:47:25;;;;;;;7.03;1.58;;;14.30;99.90;;;;;;7365431;19;20015;-46
2022/10/19 10:50:04;;;;;;;6.60;1.63;;;14.20;99.90;;;;;;7365677;19;20408;-44
2022/10/19 10:52:31;;;;;;;5.97;1.70;;;14.40;99.90;;;;;;7358597;19;20502;-42
2022/10/19 10:55:09;;;;;;;6.35;3.85;;;14.40;99.90;;;;;;7361338;19;20010;-43
2022/10/19 10:57:49;;;;;;;13.75;7.95;;;14.40;99.90;;;;;;7361986;19;20332;-48
2022/10/19 11:00:18;;;;;;;4.70;1.60;;;14.50;99.90;;;;;;7364703;19;20074;-44
2022/10/19 11:03:17;;;;;;;5.68;1.30;;;14.60;99.90;;;;;;7368520;19;20022;-45
2022/10/19 11:05:57;;;;;;;5.22;1.30;;;14.70;99.90;;;;;;7370722;19;20446;-45
2022/10/19 11:08:42;;;;;;;5.50;2.25;;;14.70;99.90;;;;;;7369288;19;20018;-44
2022/10/19 11:11:16;;;;;;;12.98;1.50;;;14.70;99.90;;;;;;7366955;19;20029;-45
2022/10/19 11:13:52;;;;;;;9.60;4.25;;;14.80;99.90;;;;;;7370927;19;20018;-45
2022/10/19 11:16:41;;;;;;;3.88;1.75;;;15.10;99.90;;;;;;7367548;19;20015;-44
2022/10/19 11:19:18;;;;;;;3.30;0.90;;;15.10;99.90;;;;;;7368137;19;20018;-49
2022/10/19 11:22:00;;;;;;;6.47;1.10;;;15.20;99.90;;;;;;7367116;19;20631;-46
2022/10/19 11:24:48;;;;;;;3.95;1.00;;;14.70;99.90;;;;;;7367477;19;20462;-45
2022/10/19 11:27:43;;;;;;;3.97;1.17;;;14.70;99.90;;;;;;7370775;19;20025;-45
2022/10/19 11:30:21;;;;;;;6.63;2.20;;;14.40;99.90;;;;;;7369996;19;20489;-44
2022/10/19 11:33:25;;;;;;;8.18;3.25;;;14.50;99.90;;;;;;7368640;19;20018;-45
2022/10/19 11:36:00;;;;;;;6.25;1.30;;;14.70;99.90;;;;;;7371761;19;20022;-45
2022/10/19 11:38:41;;;;;;;3.80;0.95;;;14.90;99.90;;;;;;7368455;19;20030;-43
2022/10/19 11:41:39;;;;;;;6.23;2.87;;;14.90;99.90;;;;;;7370443;19;20490;-45
2022/10/19 11:44:33;;;;;;;5.18;1.05;;;14.90;99.90;;;;;;7372972;19;20584;-45
2022/10/19 11:47:23;;;;;;;14.00;7.82;;;15.00;99.90;;;;;;7371056;19;20439;-45
2022/10/19 11:50:17;;;;;;;9.48;1.73;;;15.70;99.90;;;;;;7365157;19;20030;-48
2022/10/19 11:53:02;;;;;;;5.50;1.45;;;16.40;99.90;;;;;;7364926;19;20098;-45
2022/10/19 11:55:59;;;;;;;6.68;1.88;;;17.50;99.90;;;;;;7368871;19;21240;-49
2022/10/19 11:58:44;;;;;;;5.32;1.10;;;17.80;99.90;;;;;;7368428;19;20021;-44
2022/10/19 12:01:33;;;;;;;8.35;1.80;;;18.10;99.90;;;;;;7374100;19;20018;-46
2022/10/19 12:04:34;;;;;;;9.55;4.53;;;18.20;99.90;;;;;;7372430;19;20882;-47
2022/10/19 12:07:15;;;;;;;6.72;1.60;;;17.30;99.90;;;;;;7372342;19;20418;-44
2022/10/19 12:10:03;;;;;;;7.32;2.55;;;17.20;99.90;;;;;;7375657;19;20025;-44
2022/10/19 12:12:38;;;;;;;7.03;1.38;;;16.90;99.90;;;;;;7370417;19;20018;-46
2022/10/19 12:15:10;;;;;;;7.43;2.20;;;16.90;99.90;;;;;;7369234;19;20026;-47
2022/10/19 12:17:41;;;;;;;10.55;2.40;;;16.80;99.90;;;;;;7371855;19;20030;-46
2022/10/19 12:20:24;;;;;;;8.50;3.47;;;17.10;99.90;;;;;;7368816;19;20022;-48
2022/10/19 12:22:52;;;;;;;10.27;3.95;;;17.90;99.90;;;;;;7366556;19;20506;-47
2022/10/19 12:25:19;;;;;;;13.02;6.65;;;19.00;99.90;;;;;;7367148;19;20110;-45
2022/10/19 12:27:48;;;;;;;6.30;1.42;;;19.40;99.90;;;;;;7367122;19;20018;-46
2022/10/19 12:30:21;;;;;;;6.55;2.03;;;19.60;99.90;;;;;;7371043;19;20398;-49
2022/10/19 12:33:42;;;;;;;5.60;2.55;;;19.60;99.90;;;;;;7368997;19;20459;-46
2022/10/19 12:36:31;;;;;;;6.88;1.63;;;19.00;99.50;;;;;;7368800;19;20463;-45
2022/10/19 12:39:24;;;;;;;5.63;1.35;;;18.60;99.90;;;;;;7363796;19;20022;-45
2022/10/19 12:42:17;;;;;;;7.07;2.80;;;18.20;99.90;;;;;;7368600;19;20491;-45
2022/10/19 12:44:52;;;;;;;5.75;1.20;;;18.20;99.90;;;;;;7371804;19;20031;-47
2022/10/19 12:47:24;;;;;;;5.93;2.80;;;17.90;99.90;;;;;;7368871;19;20446;-45
2022/10/19 12:49:55;;;;;;;6.18;1.15;;;18.20;99.90;;;;;;7372059;19;20022;-48
2022/10/19 12:52:37;;;;;;;7.00;1.98;;;19.10;99.90;;;;;;7367197;19;20032;-44
2022/10/19 12:55:33;;;;;;;5.32;1.55;;;19.60;99.90;;;;;;7372001;19;20014;-46
2022/10/19 12:58:16;;;;;;;6.53;1.30;;;19.50;99.90;;;;;;7371278;19;20022;-45
2022/10/19 13:01:00;;;;;;;6.65;2.15;;;19.20;99.90;;;;;;7373501;19;20047;-45
2022/10/19 13:03:40;;;;;;;5.03;1.25;;;18.80;99.20;;;;;;7370205;19;20019;-43
2022/10/19 13:06:27;;;;;;;6.22;1.83;;;18.60;98.80;;;;;;7367647;19;20040;-45
2022/10/19 13:08:58;;;;;;;3.90;1.50;;;17.90;99.90;;;;;;7366617;19;20026;-48
2022/10/19 13:11:25;;;;;;;;;;;17.30;99.90;;;;;;7366169;19;20094;-47
2022/10/19 13:14:15;;;;;;;3.22;1.35;;;17.10;99.90;;;;;;7366926;19;19927;-44
2022/10/19 13:17:01;;;;;;;13.27;7.43;;;17.50;99.90;;;;;;7368074;19;20514;-44
2022/10/19 13:19:31;;;;;;;5.88;3.03;;;18.10;99.90;;;;;;7367381;19;21382;-44